Time;durP1;ratioP1;P1;durP2;ratioP2;P2;SDS_P1;SDS_P2;PMS_P1;PMS_P2;Temp;Humidity;BMP_temperature;BMP_pressure;BME280_temperature;BME280_humidity;BME280_pressure;Samples;Min_cycle;Max_cycle;Signal;HPM_P1;HPM_P2
2022/05/27 00:00:41;;;;;;;0.00;0.00;;;19.90;75.10;;;;;;4194509;28;20055;-65
2022/05/27 00:03:03;;;;;;;0.30;0.30;;;19.90;75.10;;;;;;4194113;28;20044;-65
2022/05/27 00:05:25;;;;;;;0.00;0.00;;;19.80;75.00;;;;;;4194345;28;20487;-65
2022/05/27 00:07:47;;;;;;;0.00;0.00;;;19.80;75.00;;;;;;4194315;28;20048;-65
2022/05/27 00:10:14;;;;;;;0.00;0.00;;;19.80;75.00;;;;;;4196406;28;20078;-65
2022/05/27 00:12:36;;;;;;;0.00;0.00;;;19.80;75.00;;;;;;4194155;28;20037;-65
2022/05/27 00:14:58;;;;;;;0.08;0.08;;;19.80;75.00;;;;;;4192951;28;20499;-65
2022/05/27 00:17:20;;;;;;;2.10;1.38;;;19.80;75.10;;;;;;4193784;28;20048;-64
2022/05/27 00:19:42;;;;;;;0.00;0.00;;;19.80;75.00;;;;;;4195373;28;20051;-65
2022/05/27 00:22:04;;;;;;;0.03;0.03;;;19.80;75.00;;;;;;4194295;28;20426;-65
2022/05/27 00:24:27;;;;;;;0.00;0.00;;;19.80;75.00;;;;;;4192872;28;20052;-65
2022/05/27 00:26:50;;;;;;;0.63;0.45;;;19.80;75.00;;;;;;4194034;28;20074;-65
2022/05/27 00:29:12;;;;;;;0.10;0.10;;;19.80;75.00;;;;;;4192512;28;20037;-65
2022/05/27 00:31:34;;;;;;;0.00;0.00;;;19.80;75.00;;;;;;4211009;28;20079;-65
2022/05/27 00:33:56;;;;;;;1.20;0.80;;;19.80;75.00;;;;;;4210489;28;20124;-66
2022/05/27 00:36:18;;;;;;;0.17;0.17;;;19.80;75.00;;;;;;4210918;28;20040;-66
2022/05/27 00:38:41;;;;;;;0.45;0.45;;;19.80;75.00;;;;;;4213747;28;20077;-65
2022/05/27 00:41:04;;;;;;;0.05;0.05;;;19.80;75.00;;;;;;4227483;28;20047;-66
2022/05/27 00:43:27;;;;;;;0.00;0.00;;;19.80;75.00;;;;;;4216783;27;20402;-65
2022/05/27 00:45:57;;;;;;;0.00;0.00;;;19.80;75.00;;;;;;4210951;28;20060;-66
2022/05/27 00:48:21;;;;;;;0.70;0.70;;;19.80;75.10;;;;;;4210196;28;20056;-66
2022/05/27 00:50:46;;;;;;;0.00;0.00;;;19.80;75.00;;;;;;4210600;28;20069;-66
2022/05/27 00:53:11;;;;;;;0.00;0.00;;;19.80;75.00;;;;;;4212609;28;20053;-65
2022/05/27 00:55:37;;;;;;;0.00;0.00;;;19.80;75.00;;;;;;4209932;28;20425;-66
2022/05/27 00:58:06;;;;;;;0.00;0.00;;;19.80;75.00;;;;;;4210736;28;20376;-66
2022/05/27 01:00:30;;;;;;;0.00;0.00;;;19.80;75.00;;;;;;4209034;28;20379;-65
2022/05/27 01:02:54;;;;;;;0.25;0.25;;;19.80;75.00;;;;;;4209854;28;20052;-65
2022/05/27 01:05:19;;;;;;;0.00;0.00;;;19.80;75.00;;;;;;4210298;28;20048;-65
2022/05/27 01:07:41;;;;;;;0.00;0.00;;;19.80;75.00;;;;;;4223309;27;20505;-65
2022/05/27 01:10:06;;;;;;;0.00;0.00;;;19.80;75.00;;;;;;4226596;28;20122;-65
2022/05/27 01:12:44;;;;;;;0.00;0.00;;;19.80;75.00;;;;;;4224964;28;20050;-65
2022/05/27 01:15:20;;;;;;;0.10;0.10;;;19.80;75.00;;;;;;4192801;28;20196;-65
2022/05/27 01:17:55;;;;;;;1.65;0.47;;;19.80;75.00;;;;;;4193216;28;20046;-65
2022/05/27 01:20:22;;;;;;;0.00;0.00;;;19.80;75.10;;;;;;4192015;28;20399;-65
2022/05/27 01:22:53;;;;;;;0.00;0.00;;;19.80;75.00;;;;;;4210255;28;20467;-65
2022/05/27 01:25:48;;;;;;;0.00;0.00;;;19.80;75.10;;;;;;4208436;28;20101;-65
2022/05/27 01:28:30;;;;;;;0.00;0.00;;;19.80;75.20;;;;;;4162611;28;20041;-65
2022/05/27 01:30:58;;;;;;;0.35;0.35;;;19.70;75.20;;;;;;4191844;28;20044;-65
2022/05/27 01:33:35;;;;;;;0.55;0.55;;;19.70;76.10;;;;;;4192962;28;20157;-65
2022/05/27 01:36:06;;;;;;;0.20;0.20;;;19.70;75.20;;;;;;4193119;28;20059;-65
2022/05/27 01:38:33;;;;;;;0.00;0.00;;;19.70;75.30;;;;;;4202408;28;20112;-65
2022/05/27 01:41:02;;;;;;;0.00;0.00;;;19.70;75.40;;;;;;4225652;28;20047;-65
2022/05/27 01:43:28;;;;;;;0.00;0.00;;;19.70;76.20;;;;;;4209099;28;20094;-65
2022/05/27 01:45:57;;;;;;;0.45;0.45;;;19.70;75.30;;;;;;4193872;28;20127;-65
2022/05/27 01:48:26;;;;;;;0.00;0.00;;;19.70;75.30;;;;;;4193291;28;20045;-65
2022/05/27 01:50:53;;;;;;;0.30;0.30;;;19.70;75.30;;;;;;4193178;28;20044;-65
2022/05/27 01:53:23;;;;;;;0.00;0.00;;;19.70;75.20;;;;;;4202553;28;20044;-65
2022/05/27 01:55:53;;;;;;;0.00;0.00;;;19.70;75.30;;;;;;4209657;28;20110;-65
2022/05/27 01:58:22;;;;;;;0.08;0.08;;;19.70;75.30;;;;;;4210112;28;20064;-65
2022/05/27 02:00:45;;;;;;;0.00;0.00;;;19.70;75.30;;;;;;4209829;28;20044;-65
2022/05/27 02:03:13;;;;;;;0.00;0.00;;;19.70;75.30;;;;;;4209874;28;20068;-65
2022/05/27 02:05:40;;;;;;;0.60;0.60;;;19.70;75.40;;;;;;4209477;28;20054;-66
2022/05/27 02:08:07;;;;;;;0.00;0.00;;;19.70;75.30;;;;;;4195244;28;20526;-66
2022/05/27 02:10:33;;;;;;;0.00;0.00;;;19.70;75.40;;;;;;4193036;28;20048;-65
2022/05/27 02:13:00;;;;;;;0.40;0.30;;;19.60;75.30;;;;;;4192945;28;20515;-65
2022/05/27 02:15:29;;;;;;;0.00;0.00;;;19.70;75.40;;;;;;4194473;28;20102;-65
2022/05/27 02:17:55;;;;;;;0.10;0.10;;;19.60;75.30;;;;;;4208632;28;20068;-65
2022/05/27 02:20:24;;;;;;;0.00;0.00;;;19.60;75.40;;;;;;4209843;28;20055;-65
2022/05/27 02:22:51;;;;;;;0.00;0.00;;;19.60;75.30;;;;;;4209532;28;20071;-65
2022/05/27 02:25:17;;;;;;;0.00;0.00;;;19.60;75.40;;;;;;4209534;28;20067;-65
2022/05/27 02:27:44;;;;;;;0.00;0.00;;;19.60;75.30;;;;;;4209500;28;20044;-65
2022/05/27 02:30:12;;;;;;;0.00;0.00;;;19.60;75.30;;;;;;4212188;28;20048;-66
2022/05/27 02:32:39;;;;;;;0.00;0.00;;;19.60;75.30;;;;;;4212716;28;20039;-66
2022/05/27 02:35:09;;;;;;;2.85;2.65;;;19.60;75.20;;;;;;4210958;28;20055;-66
2022/05/27 02:37:35;;;;;;;0.00;0.00;;;19.60;76.00;;;;;;4195446;28;20044;-66
2022/05/27 02:40:02;;;;;;;0.00;0.00;;;19.60;75.10;;;;;;4198606;28;20529;-65
2022/05/27 02:42:31;;;;;;;0.00;0.00;;;19.60;75.10;;;;;;4197431;28;20383;-66
2022/05/27 02:45:03;;;;;;;0.00;0.00;;;19.60;75.10;;;;;;4195237;28;20059;-66
2022/05/27 02:47:36;;;;;;;0.00;0.00;;;19.60;75.00;;;;;;4195111;28;20057;-65
2022/05/27 02:50:05;;;;;;;0.00;0.00;;;19.60;75.00;;;;;;4195739;28;20052;-65
2022/05/27 02:52:38;;;;;;;0.00;0.00;;;19.50;74.90;;;;;;4195404;28;20404;-65
2022/05/27 02:55:18;;;;;;;0.00;0.00;;;19.60;75.00;;;;;;4195077;28;20106;-65
2022/05/27 02:57:44;;;;;;;0.00;0.00;;;19.50;74.90;;;;;;4195619;28;20071;-65
2022/05/27 03:00:08;;;;;;;0.00;0.00;;;19.60;75.00;;;;;;4195751;28;20040;-65
2022/05/27 03:02:30;;;;;;;0.00;0.00;;;19.50;74.80;;;;;;4199471;28;20466;-65
2022/05/27 03:04:58;;;;;;;0.10;0.10;;;19.50;74.80;;;;;;4195231;28;20048;-65
2022/05/27 03:07:35;;;;;;;1.67;1.55;;;19.50;75.70;;;;;;4195510;28;20055;-66
2022/05/27 03:10:14;;;;;;;0.00;0.00;;;19.50;74.80;;;;;;4195281;28;20442;-65
2022/05/27 03:12:45;;;;;;;0.00;0.00;;;19.50;74.70;;;;;;4195237;28;20040;-65
2022/05/27 03:15:21;;;;;;;0.00;0.00;;;19.50;74.70;;;;;;4194877;28;20052;-66
2022/05/27 03:17:57;;;;;;;0.65;0.65;;;19.50;74.60;;;;;;4178157;28;20083;-66
2022/05/27 03:20:30;;;;;;;0.65;0.65;;;19.50;74.60;;;;;;4188956;28;20044;-66
2022/05/27 03:23:06;;;;;;;0.00;0.00;;;19.50;74.60;;;;;;4211576;28;20116;-66
2022/05/27 03:25:38;;;;;;;0.00;0.00;;;19.50;75.50;;;;;;4211453;28;20072;-66
2022/05/27 03:28:07;;;;;;;0.10;0.10;;;19.50;74.50;;;;;;4227083;28;20062;-66
2022/05/27 03:30:32;;;;;;;0.00;0.00;;;19.50;74.60;;;;;;4217456;28;20052;-66
2022/05/27 03:33:00;;;;;;;0.00;0.00;;;19.50;73.80;;;;;;4211788;28;20047;-66
2022/05/27 03:35:31;;;;;;;0.00;0.00;;;19.50;74.50;;;;;;4211302;28;20048;-66
2022/05/27 03:38:01;;;;;;;0.00;0.00;;;19.50;74.50;;;;;;4222291;27;20100;-66
2022/05/27 03:40:27;;;;;;;0.00;0.00;;;19.50;74.40;;;;;;4228329;27;20039;-66
2022/05/27 03:42:53;;;;;;;0.55;0.30;;;19.50;74.40;;;;;;4223016;28;20467;-66
2022/05/27 03:45:19;;;;;;;0.00;0.00;;;19.50;74.40;;;;;;4222835;27;20044;-66
2022/05/27 03:47:43;;;;;;;0.00;0.00;;;19.50;74.30;;;;;;4228221;27;20053;-66
2022/05/27 03:50:07;;;;;;;0.00;0.00;;;19.50;74.40;;;;;;4218818;28;20051;-66
2022/05/27 03:52:34;;;;;;;0.00;0.00;;;19.50;74.40;;;;;;4210773;28;20048;-66
2022/05/27 03:54:55;;;;;;;0.00;0.00;;;19.50;74.30;;;;;;4211388;28;20118;-67
2022/05/27 03:57:18;;;;;;;0.00;0.00;;;19.40;74.20;;;;;;4211236;28;20134;-66
2022/05/27 03:59:42;;;;;;;0.00;0.00;;;19.50;74.30;;;;;;4214904;28;20483;-66
2022/05/27 04:02:04;;;;;;;0.10;0.10;;;19.50;74.30;;;;;;4210104;28;20147;-66
2022/05/27 04:04:28;;;;;;;0.00;0.00;;;19.50;74.30;;;;;;4211323;28;20056;-66
2022/05/27 04:06:51;;;;;;;0.08;0.08;;;19.50;75.20;;;;;;4210847;28;20490;-66
2022/05/27 04:09:13;;;;;;;0.00;0.00;;;19.50;74.20;;;;;;4214805;28;20097;-65
2022/05/27 04:11:35;;;;;;;0.00;0.00;;;19.50;74.20;;;;;;4227974;28;20054;-66
2022/05/27 04:13:57;;;;;;;1.27;1.17;;;19.50;74.20;;;;;;4199515;28;20044;-66
2022/05/27 04:16:21;;;;;;;0.00;0.00;;;19.50;74.20;;;;;;4192537;28;20107;-65
2022/05/27 04:18:43;;;;;;;1.27;1.25;;;19.50;74.10;;;;;;4198316;28;20513;-65
2022/05/27 04:21:05;;;;;;;0.00;0.00;;;19.40;74.10;;;;;;4194246;28;20094;-65
2022/05/27 04:23:27;;;;;;;0.98;0.32;;;19.50;74.10;;;;;;4210897;28;20044;-65
2022/05/27 04:25:50;;;;;;;0.25;0.25;;;19.50;74.10;;;;;;4210962;28;20455;-66
2022/05/27 04:28:13;;;;;;;0.00;0.00;;;19.40;74.00;;;;;;4210577;28;20056;-65
2022/05/27 04:30:35;;;;;;;0.00;0.00;;;19.40;74.00;;;;;;4222090;28;20050;-65
2022/05/27 04:32:58;;;;;;;0.08;0.08;;;19.40;74.00;;;;;;4227564;27;20098;-66
2022/05/27 04:35:20;;;;;;;0.00;0.00;;;19.40;74.00;;;;;;4225762;28;20134;-66
2022/05/27 04:37:42;;;;;;;0.00;0.00;;;19.40;74.00;;;;;;4226822;27;20044;-66
2022/05/27 04:40:05;;;;;;;0.00;0.00;;;19.40;74.00;;;;;;4227731;27;20466;-66
2022/05/27 04:42:28;;;;;;;0.40;0.40;;;19.40;74.00;;;;;;4210613;28;20498;-66
2022/05/27 04:44:50;;;;;;;0.00;0.00;;;19.40;74.00;;;;;;4210476;28;20066;-66
2022/05/27 04:47:13;;;;;;;0.00;0.00;;;19.40;74.00;;;;;;4210145;28;20044;-65
2022/05/27 04:49:53;;;;;;;0.00;0.00;;;19.40;74.40;;;;;;4207762;28;20072;-65
2022/05/27 04:52:15;;;;;;;0.00;0.00;;;19.40;74.80;;;;;;4192964;28;20121;-64
2022/05/27 04:54:37;;;;;;;0.00;0.00;;;19.50;74.50;;;;;;4193719;28;20044;-64
2022/05/27 04:57:00;;;;;;;0.52;0.52;;;19.50;74.30;;;;;;4193546;28;20106;-64
2022/05/27 04:59:22;;;;;;;0.00;0.00;;;19.50;74.10;;;;;;4220711;28;20155;-64
2022/05/27 05:01:44;;;;;;;0.00;0.00;;;19.50;74.00;;;;;;4226896;28;20049;-65
2022/05/27 05:04:06;;;;;;;0.00;0.00;;;19.50;73.90;;;;;;4223194;28;20052;-63
2022/05/27 05:06:29;;;;;;;0.00;0.00;;;19.50;73.80;;;;;;4219286;28;20147;-64
2022/05/27 05:08:51;;;;;;;0.00;0.00;;;19.50;73.80;;;;;;4210542;28;20396;-64
2022/05/27 05:11:13;;;;;;;0.38;0.38;;;19.50;73.70;;;;;;4210602;28;20063;-64
2022/05/27 05:13:36;;;;;;;0.10;0.10;;;19.40;73.60;;;;;;4199164;28;20055;-64
2022/05/27 05:15:59;;;;;;;0.00;0.00;;;19.40;73.60;;;;;;4192333;28;20474;-64
2022/05/27 05:18:21;;;;;;;2.20;1.00;;;19.40;73.50;;;;;;4193503;28;20048;-63
2022/05/27 05:20:44;;;;;;;1.35;1.30;;;19.40;73.50;;;;;;4193553;28;20361;-65
2022/05/27 05:23:08;;;;;;;0.00;0.00;;;19.40;73.60;;;;;;4193547;28;20102;-64
2022/05/27 05:25:30;;;;;;;0.00;0.00;;;19.40;73.70;;;;;;4192861;28;20049;-64
2022/05/27 05:27:53;;;;;;;0.45;0.38;;;19.40;74.60;;;;;;4193395;28;20139;-63
2022/05/27 05:30:17;;;;;;;0.10;0.10;;;19.40;73.60;;;;;;4193610;28;20456;-64
2022/05/27 05:32:40;;;;;;;0.20;0.20;;;19.40;73.00;;;;;;4199388;28;20047;-65
2022/05/27 05:35:02;;;;;;;0.32;0.32;;;19.40;73.20;;;;;;4209983;28;20059;-64
2022/05/27 05:37:24;;;;;;;0.08;0.08;;;19.40;73.10;;;;;;4201536;28;20045;-64
2022/05/27 05:39:47;;;;;;;0.10;0.10;;;19.40;73.00;;;;;;4193333;28;20544;-64
2022/05/27 05:42:10;;;;;;;0.00;0.00;;;19.40;72.40;;;;;;4193429;28;20109;-65
2022/05/27 05:44:33;;;;;;;0.63;0.63;;;19.40;72.10;;;;;;4193122;28;20045;-65
2022/05/27 05:46:55;;;;;;;0.00;0.00;;;19.30;71.80;;;;;;4201073;28;20059;-65
2022/05/27 05:49:17;;;;;;;0.40;0.40;;;19.30;71.40;;;;;;4209454;28;20052;-65
2022/05/27 05:51:39;;;;;;;0.00;0.00;;;19.30;71.10;;;;;;4210055;28;20048;-65
2022/05/27 05:54:01;;;;;;;0.10;0.10;;;19.30;70.40;;;;;;4209869;28;20436;-65
2022/05/27 05:56:24;;;;;;;0.15;0.15;;;19.30;70.60;;;;;;4203248;28;20048;-65
2022/05/27 05:58:48;;;;;;;0.00;0.00;;;19.30;70.30;;;;;;4196617;28;20102;-65
2022/05/27 06:01:10;;;;;;;0.03;0.03;;;19.30;69.70;;;;;;4194066;28;20047;-65
2022/05/27 06:03:32;;;;;;;3.63;1.75;;;19.30;68.90;;;;;;4196288;28;20055;-65
2022/05/27 06:05:55;;;;;;;0.10;0.10;;;19.40;69.00;;;;;;4195144;28;20052;-64
2022/05/27 06:08:18;;;;;;;1.17;0.30;;;19.40;69.60;;;;;;4196170;28;20041;-65
2022/05/27 06:10:40;;;;;;;0.20;0.20;;;19.40;68.10;;;;;;4196067;28;20052;-65
2022/05/27 06:13:03;;;;;;;0.00;0.00;;;19.40;67.90;;;;;;4207232;28;20052;-65
2022/05/27 06:15:25;;;;;;;0.10;0.10;;;19.40;67.90;;;;;;4196044;28;20502;-65
2022/05/27 06:17:47;;;;;;;0.32;0.32;;;19.40;67.60;;;;;;4196002;28;20123;-65
2022/05/27 06:20:11;;;;;;;5.38;1.75;;;19.40;67.20;;;;;;4211972;28;20118;-65
2022/05/27 06:22:34;;;;;;;0.00;0.00;;;19.40;66.60;;;;;;4212653;28;20486;-65
2022/05/27 06:24:56;;;;;;;0.00;0.00;;;19.40;67.00;;;;;;4212876;28;20476;-65
2022/05/27 06:27:19;;;;;;;0.00;0.00;;;19.50;65.80;;;;;;4212552;28;20103;-65
2022/05/27 06:35:01;;;;;;;0.00;0.00;;;19.50;64.80;;;;;;4212127;28;20398;-65
2022/05/27 06:37:23;;;;;;;0.00;0.00;;;19.50;64.30;;;;;;4212543;28;20394;-65
2022/05/27 06:39:46;;;;;;;0.00;0.00;;;19.50;63.60;;;;;;4211338;28;20514;-65
2022/05/27 06:42:11;;;;;;;0.00;0.00;;;19.60;63.20;;;;;;4210793;28;20494;-65
2022/05/27 06:44:56;;;;;;;0.00;0.00;;;19.60;62.30;;;;;;4195548;28;20049;-65
2022/05/27 06:47:18;;;;;;;0.10;0.10;;;19.70;61.70;;;;;;4195494;28;20119;-65
2022/05/27 06:49:43;;;;;;;0.00;0.00;;;19.70;61.20;;;;;;4195214;28;20390;-65
2022/05/27 06:52:07;;;;;;;0.80;0.80;;;19.80;60.90;;;;;;4201579;28;20168;-65
2022/05/27 06:54:29;;;;;;;0.00;0.00;;;19.80;60.50;;;;;;4219906;27;20040;-64
2022/05/27 06:56:52;;;;;;;0.00;0.00;;;19.80;59.40;;;;;;4195841;28;20067;-64
2022/05/27 06:59:16;;;;;;;0.00;0.00;;;19.80;59.60;;;;;;4195439;28;20047;-64
2022/05/27 07:01:39;;;;;;;0.32;0.32;;;19.80;59.30;;;;;;4195322;28;20488;-64
2022/05/27 07:04:01;;;;;;;0.00;0.00;;;19.80;59.30;;;;;;4195447;28;20055;-64
2022/05/27 07:06:26;;;;;;;0.10;0.10;;;19.90;59.30;;;;;;4207528;28;20516;-64
2022/05/27 07:08:48;;;;;;;1.13;0.75;;;19.90;58.60;;;;;;4211536;28;20094;-64
2022/05/27 07:11:10;;;;;;;0.00;0.00;;;20.00;58.50;;;;;;4210566;28;20621;-64
2022/05/27 07:13:33;;;;;;;0.00;0.00;;;20.00;58.10;;;;;;4200153;28;20452;-64
2022/05/27 07:15:55;;;;;;;0.00;0.00;;;20.00;58.00;;;;;;4195456;28;20471;-64
2022/05/27 07:18:19;;;;;;;0.20;0.20;;;20.10;57.60;;;;;;4195498;28;20048;-63
2022/05/27 07:20:41;;;;;;;0.10;0.10;;;20.10;57.40;;;;;;4203746;28;20398;-64
2022/05/27 07:23:03;;;;;;;0.00;0.00;;;20.10;56.70;;;;;;4211752;28;20043;-64
2022/05/27 07:25:26;;;;;;;0.00;0.00;;;20.20;56.20;;;;;;4212130;28;20325;-65
2022/05/27 07:27:48;;;;;;;0.00;0.00;;;20.20;55.80;;;;;;4211620;28;20094;-64
2022/05/27 07:30:14;;;;;;;0.77;0.77;;;20.20;56.40;;;;;;4201354;28;20040;-65
2022/05/27 07:32:37;;;;;;;0.00;0.00;;;20.20;55.70;;;;;;4194735;28;20044;-65
2022/05/27 07:35:01;;;;;;;0.00;0.00;;;20.20;55.70;;;;;;4194684;28;20051;-66
2022/05/27 07:37:23;;;;;;;0.20;0.20;;;20.20;55.70;;;;;;4195061;28;20479;-64
2022/05/27 07:39:45;;;;;;;0.85;0.85;;;20.20;55.40;;;;;;4194961;28;20048;-65
2022/05/27 07:42:07;;;;;;;0.00;0.00;;;20.20;55.30;;;;;;4197122;28;20115;-65
2022/05/27 07:44:30;;;;;;;0.10;0.10;;;20.20;55.20;;;;;;4194689;28;20090;-64
2022/05/27 07:46:53;;;;;;;0.00;0.00;;;20.20;54.70;;;;;;4195043;28;20052;-65
2022/05/27 07:49:15;;;;;;;0.75;0.75;;;20.20;54.50;;;;;;4194452;28;20460;-65
2022/05/27 07:51:54;;;;;;;0.00;0.00;;;20.20;54.70;;;;;;4194348;28;20068;-65
2022/05/27 07:54:16;;;;;;;0.00;0.00;;;20.20;54.60;;;;;;4199282;28;20098;-64
2022/05/27 07:56:39;;;;;;;0.22;0.17;;;20.10;54.70;;;;;;4228185;27;20124;-65
2022/05/27 07:59:01;;;;;;;0.43;0.43;;;20.10;54.50;;;;;;4228130;27;20055;-64
2022/05/27 08:01:23;;;;;;;0.08;0.08;;;20.10;54.50;;;;;;4228175;28;20043;-64
2022/05/27 08:03:45;;;;;;;0.00;0.00;;;20.10;54.70;;;;;;4211728;28;20048;-64
2022/05/27 08:06:08;;;;;;;0.00;0.00;;;20.10;55.40;;;;;;4195163;28;20197;-64
2022/05/27 08:08:31;;;;;;;0.40;0.40;;;20.10;55.40;;;;;;4194121;28;20131;-65
2022/05/27 08:10:53;;;;;;;0.65;0.65;;;20.00;54.70;;;;;;4194609;28;20102;-65
2022/05/27 08:13:15;;;;;;;0.00;0.00;;;20.00;54.90;;;;;;4194387;28;20501;-65
2022/05/27 08:15:37;;;;;;;1.00;0.90;;;20.00;55.10;;;;;;4192881;28;20415;-65
2022/05/27 08:17:59;;;;;;;0.00;0.00;;;20.00;55.20;;;;;;4192940;28;20530;-65
2022/05/27 08:20:24;;;;;;;0.22;0.22;;;20.00;55.20;;;;;;4194013;28;20044;-65
2022/05/27 08:22:46;;;;;;;0.00;0.00;;;20.00;55.00;;;;;;4177815;28;20048;-66
2022/05/27 08:25:10;;;;;;;0.05;0.05;;;20.10;54.70;;;;;;4194148;28;20040;-66
2022/05/27 08:27:32;;;;;;;0.00;0.00;;;20.10;54.70;;;;;;4193944;28;20098;-66
2022/05/27 08:29:54;;;;;;;0.55;0.55;;;20.10;54.20;;;;;;4194061;28;20392;-66
2022/05/27 08:32:16;;;;;;;0.00;0.00;;;20.10;54.20;;;;;;4193933;28;20325;-66
2022/05/27 08:39:58;;;;;;;0.20;0.20;;;20.10;54.30;;;;;;4193780;28;20142;-66
2022/05/27 08:42:35;;;;;;;0.20;0.20;;;20.10;54.20;;;;;;4193690;28;20132;-66
2022/05/27 08:45:08;;;;;;;0.00;0.00;;;20.20;54.00;;;;;;4207978;28;20075;-66
2022/05/27 08:47:35;;;;;;;0.00;0.00;;;20.20;53.40;;;;;;4210105;28;20050;-66
2022/05/27 08:50:08;;;;;;;0.00;0.00;;;20.20;53.60;;;;;;4209960;28;20097;-65
2022/05/27 08:52:37;;;;;;;1.88;1.25;;;20.10;53.60;;;;;;4210009;28;20043;-65
2022/05/27 08:55:02;;;;;;;2.63;1.75;;;20.10;53.70;;;;;;4193967;28;20046;-65
2022/05/27 09:00:21;;;;;;;0.00;0.00;;;20.10;53.60;;;;;;4174476;28;20049;-65
2022/05/27 09:02:49;;;;;;;0.30;0.30;;;20.20;53.50;;;;;;4193690;28;20105;-65
2022/05/27 09:05:18;;;;;;;3.50;3.20;;;20.20;53.40;;;;;;4198126;28;20071;-65
2022/05/27 09:07:45;;;;;;;0.00;0.00;;;20.20;53.40;;;;;;4211853;28;20071;-65
2022/05/27 09:10:13;;;;;;;0.00;0.00;;;20.10;53.10;;;;;;4210387;28;20044;-65
2022/05/27 09:12:46;;;;;;;4.68;2.08;;;20.10;53.10;;;;;;4208683;28;20495;-65
2022/05/27 09:15:17;;;;;;;0.15;0.15;;;20.10;53.20;;;;;;4209837;28;20097;-65
2022/05/27 09:17:44;;;;;;;0.00;0.00;;;20.10;53.50;;;;;;4212624;28;20067;-65
2022/05/27 09:20:17;;;;;;;11.50;1.75;;;20.10;53.60;;;;;;4226550;28;20047;-65
2022/05/27 09:22:47;;;;;;;0.00;0.00;;;20.10;53.70;;;;;;4226705;28;20043;-66
2022/05/27 09:25:20;;;;;;;0.77;0.32;;;20.10;53.80;;;;;;4223311;28;20131;-66
2022/05/27 09:27:51;;;;;;;0.30;0.30;;;20.10;53.60;;;;;;4209704;28;20147;-66
2022/05/27 09:30:14;;;;;;;;;;;20.10;53.50;;;;;;4210256;28;20480;-67
2022/05/27 09:32:48;;;;;;;0.90;0.90;;;20.10;53.40;;;;;;4213804;28;20374;-66
2022/05/27 09:35:14;;;;;;;0.08;0.08;;;20.20;53.50;;;;;;4226563;28;20492;-66
2022/05/27 09:38:01;;;;;;;0.08;0.08;;;20.20;53.30;;;;;;4222611;27;20051;-66
2022/05/27 09:40:34;;;;;;;0.00;0.00;;;20.10;52.90;;;;;;4214459;28;20048;-67
2022/05/27 09:43:03;;;;;;;0.00;0.00;;;20.10;52.80;;;;;;4208986;28;20518;-66
2022/05/27 09:45:25;;;;;;;1.30;1.20;;;20.20;53.50;;;;;;4196401;28;20075;-67
2022/05/27 09:47:47;;;;;;;0.52;0.52;;;20.20;53.70;;;;;;4211121;28;20415;-66
2022/05/27 09:50:23;;;;;;;0.00;0.00;;;20.20;53.50;;;;;;4213138;28;20051;-67
2022/05/27 09:52:46;;;;;;;0.03;0.03;;;20.20;52.80;;;;;;4212148;28;20109;-66
2022/05/27 09:55:20;;;;;;;0.10;0.10;;;20.20;52.80;;;;;;4213137;28;20070;-66
2022/05/27 09:57:56;;;;;;;30.50;4.25;;;20.20;52.80;;;;;;4212667;28;20040;-65
2022/05/27 10:00:34;;;;;;;0.00;0.00;;;20.20;52.70;;;;;;4220184;27;20051;-68
2022/05/27 10:02:58;;;;;;;5.20;0.80;;;20.30;52.70;;;;;;4229470;27;20516;-66
2022/05/27 10:05:25;;;;;;;0.22;0.22;;;20.30;52.90;;;;;;4229854;27;20417;-67
2022/05/27 10:07:53;;;;;;;8.90;1.02;;;20.30;52.80;;;;;;4227417;27;20462;-66
2022/05/27 10:10:28;;;;;;;0.00;0.00;;;20.30;52.60;;;;;;4229785;27;20065;-67
2022/05/27 10:12:50;;;;;;;0.28;0.28;;;20.30;52.60;;;;;;4209199;28;20036;-67
2022/05/27 10:15:27;;;;;;;0.10;0.10;;;20.30;52.90;;;;;;4219554;27;20101;-67
2022/05/27 10:17:49;;;;;;;0.00;0.00;;;20.30;52.90;;;;;;4184528;28;20059;-66
2022/05/27 10:20:18;;;;;;;0.35;0.35;;;20.30;52.80;;;;;;4194816;28;20052;-67
2022/05/27 10:22:40;;;;;;;0.00;0.00;;;20.20;52.80;;;;;;4195696;28;20044;-67
2022/05/27 10:25:05;;;;;;;0.10;0.10;;;20.30;52.80;;;;;;4196034;28;20055;-66
2022/05/27 10:27:34;;;;;;;0.00;0.00;;;20.30;52.80;;;;;;4196315;28;20049;-66
2022/05/27 10:29:58;;;;;;;0.00;0.00;;;20.30;52.70;;;;;;4194188;28;20053;-66
2022/05/27 10:32:33;;;;;;;0.00;0.00;;;20.30;52.60;;;;;;4194486;28;21567;-65
2022/05/27 10:34:55;;;;;;;0.00;0.00;;;20.30;52.50;;;;;;4195626;28;20102;-66
2022/05/27 10:37:50;;;;;;;0.00;0.00;;;20.30;52.60;;;;;;4195642;28;20488;-66
2022/05/27 10:40:25;;;;;;;0.38;0.38;;;20.30;52.50;;;;;;4204256;28;20062;-65
2022/05/27 10:42:53;;;;;;;0.55;0.55;;;20.30;52.60;;;;;;4207220;28;20058;-66
2022/05/27 10:45:20;;;;;;;0.00;0.00;;;20.30;52.70;;;;;;4195580;28;20129;-67
2022/05/27 10:48:11;;;;;;;0.00;0.00;;;20.30;52.60;;;;;;4194550;28;20040;-66
2022/05/27 10:50:37;;;;;;;0.95;0.90;;;20.30;52.90;;;;;;4195109;28;20461;-66
2022/05/27 10:53:18;;;;;;;0.00;0.00;;;20.30;52.80;;;;;;4195416;28;20048;-66
2022/05/27 10:55:53;;;;;;;0.00;0.00;;;20.30;52.70;;;;;;4195157;28;20052;-66
2022/05/27 11:04:20;;;;;;;0.00;0.00;;;20.30;52.30;;;;;;4229005;28;20050;-66
2022/05/27 11:07:05;;;;;;;0.00;0.00;;;20.30;52.20;;;;;;4228968;28;20093;-66
2022/05/27 11:09:40;;;;;;;0.00;0.00;;;20.30;52.30;;;;;;4228416;28;20046;-65
2022/05/27 11:12:10;;;;;;;0.00;0.00;;;20.30;52.20;;;;;;4228277;27;20047;-66
2022/05/27 11:17:35;;;;;;;0.00;0.00;;;20.30;52.20;;;;;;4194639;28;20040;-65
2022/05/27 11:20:18;;;;;;;0.00;0.00;;;20.30;52.40;;;;;;4202962;28;20127;-65
2022/05/27 11:22:49;;;;;;;0.00;0.00;;;20.30;52.40;;;;;;4178319;28;20377;-65
2022/05/27 11:25:21;;;;;;;;;;;20.30;52.60;;;;;;4178783;28;20045;-65
2022/05/27 11:28:11;;;;;;;2.08;1.35;;;20.30;53.00;;;;;;4183649;28;19928;-65
2022/05/27 11:30:46;;;;;;;0.00;0.00;;;20.20;53.00;;;;;;4211391;28;20362;-64
2022/05/27 11:33:21;;;;;;;0.00;0.00;;;20.20;52.90;;;;;;4211738;28;20066;-65
2022/05/27 11:35:56;;;;;;;0.00;0.00;;;20.20;52.70;;;;;;4211735;28;20426;-63
2022/05/27 11:38:57;;;;;;;0.20;0.17;;;20.30;52.80;;;;;;4211236;28;20135;-64
2022/05/27 11:41:28;;;;;;;0.05;0.05;;;20.20;52.80;;;;;;4181947;28;20419;-65
2022/05/27 11:43:58;;;;;;;10.65;0.75;;;20.20;53.00;;;;;;4198749;28;20048;-65
2022/05/27 11:46:39;;;;;;;0.05;0.05;;;20.20;53.00;;;;;;4206091;28;20058;-65
2022/05/27 11:49:18;;;;;;;0.00;0.00;;;20.20;53.00;;;;;;4197813;28;20052;-65
2022/05/27 11:51:51;;;;;;;0.20;0.20;;;20.30;53.20;;;;;;4201893;28;20049;-65
2022/05/27 11:54:25;;;;;;;1.45;1.35;;;20.20;53.00;;;;;;4205000;28;20043;-66
2022/05/27 11:57:06;;;;;;;0.00;0.00;;;20.20;52.90;;;;;;4205391;28;20055;-66
2022/05/27 11:59:33;;;;;;;0.00;0.00;;;20.20;52.70;;;;;;4204646;28;20050;-66
2022/05/27 12:01:58;;;;;;;2.97;1.02;;;20.30;52.40;;;;;;4205219;28;20135;-67
2022/05/27 12:04:30;;;;;;;0.22;0.22;;;20.20;52.90;;;;;;4200607;28;20050;-66
2022/05/27 12:06:55;;;;;;;;;;;20.20;53.20;;;;;;4199325;28;20127;-65
2022/05/27 12:09:26;;;;;;;0.65;0.65;;;20.20;53.50;;;;;;4203841;28;19978;-64
2022/05/27 12:11:53;;;;;;;1.98;1.35;;;20.20;53.70;;;;;;4203476;28;20044;-64
2022/05/27 12:14:19;;;;;;;0.55;0.55;;;20.20;53.70;;;;;;4201674;28;20051;-64
2022/05/27 12:16:48;;;;;;;0.25;0.25;;;20.20;53.60;;;;;;4192370;28;20044;-65
2022/05/27 12:19:15;;;;;;;0.20;0.20;;;20.20;53.70;;;;;;4203055;28;20113;-65
2022/05/27 12:21:41;;;;;;;0.10;0.10;;;20.20;54.10;;;;;;4207097;28;20371;-65
2022/05/27 12:24:12;;;;;;;1.35;1.25;;;20.20;54.30;;;;;;4201776;28;20048;-64
2022/05/27 12:26:37;;;;;;;5.70;1.60;;;20.20;54.30;;;;;;4203609;28;20131;-64
2022/05/27 12:29:03;;;;;;;0.00;0.00;;;20.20;53.70;;;;;;4201592;28;20063;-64
2022/05/27 12:31:27;;;;;;;0.00;0.00;;;20.20;53.80;;;;;;4195902;28;20413;-65
2022/05/27 12:33:49;;;;;;;0.00;0.00;;;20.20;54.00;;;;;;4197735;28;20502;-65
2022/05/27 12:36:24;;;;;;;0.55;0.55;;;20.20;54.00;;;;;;4207851;28;20068;-66
2022/05/27 12:38:48;;;;;;;0.00;0.00;;;20.20;53.70;;;;;;4205155;28;20051;-64
2022/05/27 12:41:16;;;;;;;0.57;0.57;;;20.10;53.70;;;;;;4201328;28;20067;-64
2022/05/27 12:43:40;;;;;;;0.60;0.60;;;20.20;53.60;;;;;;4201749;28;20101;-64
2022/05/27 12:46:24;;;;;;;0.00;0.00;;;20.20;53.60;;;;;;4205487;28;20483;-65
2022/05/27 12:48:46;;;;;;;0.00;0.00;;;20.10;53.60;;;;;;4207397;28;20044;-65
2022/05/27 12:51:36;;;;;;;0.22;0.22;;;20.10;53.50;;;;;;4207475;28;20443;-65
2022/05/27 12:53:59;;;;;;;0.00;0.00;;;20.10;53.60;;;;;;4202305;28;20471;-65
2022/05/27 13:02:49;;;;;;;0.65;0.65;;;20.20;53.00;;;;;;4193940;28;20135;-64
2022/05/27 13:05:16;;;;;;;0.00;0.00;;;20.20;53.10;;;;;;4190462;28;20468;-65
2022/05/27 13:07:49;;;;;;;0.10;0.10;;;20.20;52.90;;;;;;4201330;28;20403;-65
2022/05/27 13:10:50;;;;;;;0.00;0.00;;;20.20;52.80;;;;;;4203134;28;20045;-65
2022/05/27 13:13:15;;;;;;;0.25;0.25;;;20.20;52.70;;;;;;4200086;28;20052;-65
2022/05/27 13:15:48;;;;;;;0.15;0.15;;;20.20;52.70;;;;;;4206854;28;20058;-65